createdAt,value
2023-03-27T00:03:07.911Z,40.40
2023-03-27T00:08:09.413Z,40.40
2023-03-27T00:13:10.824Z,40.40
2023-03-27T00:18:12.318Z,40.30
2023-03-27T00:23:13.815Z,40.30
2023-03-27T00:28:15.230Z,40.20
2023-03-27T00:33:16.657Z,40.20
2023-03-27T00:38:18.081Z,40.20
2023-03-27T00:43:19.495Z,40.20
2023-03-27T00:48:20.893Z,40.20
2023-03-27T00:53:22.326Z,40.10
2023-03-27T00:58:23.833Z,40.10
2023-03-27T01:03:25.376Z,40.10
2023-03-27T01:08:26.835Z,40.00
2023-03-27T01:13:28.253Z,40.00
2023-03-27T01:18:29.658Z,40.10
2023-03-27T01:23:35.868Z,40.00
2023-03-27T01:28:52.445Z,40.00
2023-03-27T01:33:53.882Z,39.90
2023-03-27T01:38:55.313Z,39.90
2023-03-27T01:43:56.912Z,39.80
2023-03-27T01:48:58.311Z,39.80
2023-03-27T01:53:59.713Z,39.80
2023-03-27T01:59:01.135Z,39.80
2023-03-27T02:04:02.553Z,39.80
2023-03-27T02:09:03.968Z,39.70
2023-03-27T02:14:05.381Z,39.70
2023-03-27T02:19:06.786Z,39.70
2023-03-27T02:24:08.216Z,39.70
2023-03-27T02:29:09.630Z,39.70
2023-03-27T02:34:11.029Z,39.70
2023-03-27T02:39:12.424Z,39.50
2023-03-27T02:44:13.841Z,39.50
2023-03-27T02:49:15.248Z,39.50
2023-03-27T02:54:16.674Z,39.40
2023-03-27T02:59:18.073Z,39.40
2023-03-27T03:04:19.479Z,39.40
2023-03-27T03:09:20.906Z,39.30
2023-03-27T03:14:22.304Z,39.30
2023-03-27T03:19:23.721Z,39.30
2023-03-27T03:24:25.133Z,39.30
2023-03-27T03:29:26.545Z,39.30
2023-03-27T03:34:27.981Z,39.20
2023-03-27T03:39:29.397Z,39.20
2023-03-27T03:44:30.816Z,39.20
2023-03-27T03:49:32.217Z,39.20
2023-03-27T03:54:33.619Z,39.20
2023-03-27T03:59:35.019Z,39.10
2023-03-27T04:04:36.430Z,39.10
2023-03-27T04:09:37.976Z,39.10
2023-03-27T04:14:39.411Z,39.00
2023-03-27T04:19:40.825Z,39.00
2023-03-27T04:24:42.225Z,39.10
2023-03-27T04:29:43.777Z,39.00
2023-03-27T04:34:45.220Z,39.00
2023-03-27T04:39:46.631Z,39.00
2023-03-27T04:44:48.036Z,39.00
2023-03-27T04:49:49.459Z,39.00
2023-03-27T04:54:50.856Z,39.00
2023-03-27T04:59:52.270Z,38.90
2023-03-27T05:04:53.682Z,38.90
2023-03-27T05:09:55.079Z,38.90
2023-03-27T05:14:56.476Z,38.90
2023-03-27T05:19:57.885Z,38.80
2023-03-27T05:24:59.311Z,38.90
2023-03-27T05:30:00.724Z,38.80
2023-03-27T05:35:02.146Z,38.80
2023-03-27T05:40:03.628Z,38.80
2023-03-27T05:45:05.052Z,38.80
2023-03-27T05:50:06.462Z,39.40
2023-03-27T05:55:07.871Z,38.80
2023-03-27T06:00:09.302Z,38.80
2023-03-27T06:05:10.799Z,39.30
2023-03-27T06:10:13.791Z,38.70
2023-03-27T06:15:15.661Z,38.70
2023-03-27T06:20:17.077Z,38.70
2023-03-27T06:25:18.475Z,38.60
2023-03-27T06:30:19.882Z,38.60
2023-03-27T06:35:21.293Z,38.70
2023-03-27T06:40:23.117Z,38.60
2023-03-27T06:45:24.708Z,38.60
2023-03-27T06:50:26.762Z,38.60
2023-03-27T06:55:28.220Z,38.50
2023-03-27T07:00:29.649Z,38.60
2023-03-27T07:05:31.136Z,38.50
2023-03-27T07:10:32.574Z,38.60
2023-03-27T07:15:33.991Z,38.60
2023-03-27T07:20:35.402Z,38.50
2023-03-27T07:25:37.058Z,38.50
2023-03-27T07:30:38.485Z,38.50
2023-03-27T07:35:39.996Z,38.50
2023-03-27T07:40:41.513Z,38.50
2023-03-27T07:45:43.003Z,38.50
2023-03-27T07:50:44.414Z,38.50
2023-03-27T07:55:45.818Z,38.60
2023-03-27T08:00:47.235Z,38.50
2023-03-27T08:05:48.644Z,38.50
2023-03-27T08:10:50.050Z,38.50
2023-03-27T08:15:51.458Z,38.40
2023-03-27T08:20:52.872Z,38.40
2023-03-27T08:25:54.393Z,38.40
2023-03-27T08:30:55.937Z,38.40
2023-03-27T08:36:04.418Z,38.30
2023-03-27T08:41:05.904Z,38.40
2023-03-27T08:46:07.378Z,38.30
2023-03-27T08:51:08.801Z,38.40
2023-03-27T08:56:10.219Z,38.30
2023-03-27T09:01:11.628Z,38.40
2023-03-27T09:06:13.081Z,38.40
2023-03-27T09:11:14.485Z,38.30
2023-03-27T09:16:16.100Z,38.40
2023-03-27T09:21:17.507Z,38.30
2023-03-27T09:26:18.902Z,38.40
2023-03-27T09:31:20.348Z,38.30
2023-03-27T09:36:21.929Z,38.30
2023-03-27T09:41:23.360Z,38.30
2023-03-27T09:46:24.801Z,38.40
2023-03-27T09:51:26.251Z,38.20
2023-03-27T09:56:27.713Z,38.20
2023-03-27T10:01:29.256Z,38.30
2023-03-27T10:06:30.720Z,38.20
2023-03-27T10:11:32.136Z,38.30
2023-03-27T10:16:33.700Z,38.30
2023-03-27T10:21:35.216Z,38.30
2023-03-27T10:26:36.634Z,38.20
2023-03-27T10:31:38.266Z,38.20
2023-03-27T10:36:39.733Z,38.20
2023-03-27T10:41:41.623Z,38.20
2023-03-27T10:46:43.109Z,38.30
2023-03-27T10:51:46.878Z,38.20
2023-03-27T10:56:48.606Z,38.30
2023-03-27T11:01:52.418Z,38.10
2023-03-27T11:06:53.933Z,38.10
2023-03-27T11:11:55.413Z,38.20
2023-03-27T11:16:57.079Z,38.10
2023-03-27T11:21:58.668Z,38.00
2023-03-27T11:27:00.130Z,38.00
2023-03-27T11:32:01.612Z,38.10
2023-03-27T11:37:03.092Z,38.00
2023-03-27T11:42:04.486Z,37.90
2023-03-27T11:47:05.932Z,37.90
2023-03-27T11:52:07.347Z,37.90
2023-03-27T11:57:08.848Z,37.90
2023-03-27T12:02:10.345Z,37.90
2023-03-27T12:07:12.351Z,38.00
2023-03-27T12:12:13.839Z,37.90
2023-03-27T12:17:15.301Z,37.90
2023-03-27T12:22:23.444Z,37.90
2023-03-27T12:27:25.586Z,37.90
2023-03-27T12:32:27.174Z,37.90
2023-03-27T12:37:28.627Z,37.90
2023-03-27T12:42:30.056Z,38.00
2023-03-27T12:47:45.237Z,37.90
2023-03-27T12:52:46.675Z,38.00
2023-03-27T12:57:48.227Z,37.90
2023-03-27T13:02:49.790Z,37.90
2023-03-27T13:07:53.375Z,38.00
2023-03-27T13:12:56.125Z,37.90
2023-03-27T13:17:57.588Z,37.90
2023-03-27T13:22:59.024Z,37.90
2023-03-27T13:28:00.417Z,37.90
2023-03-27T13:33:01.858Z,37.80
2023-03-27T13:38:03.347Z,37.80
2023-03-27T13:43:04.770Z,37.80
2023-03-27T13:48:06.258Z,37.80
2023-03-27T13:53:07.703Z,37.70
2023-03-27T13:58:09.146Z,37.80
2023-03-27T14:03:10.646Z,37.80
2023-03-27T14:08:12.205Z,37.90
2023-03-27T14:13:13.623Z,37.90
2023-03-27T14:18:15.034Z,37.80
2023-03-27T14:23:16.456Z,37.90
2023-03-27T14:28:17.875Z,37.80
2023-03-27T14:33:19.463Z,37.90
2023-03-27T14:38:20.858Z,37.90
2023-03-27T14:43:22.280Z,37.90
2023-03-27T14:48:23.687Z,37.90
2023-03-27T14:53:25.096Z,37.80
2023-03-27T14:58:26.532Z,37.90
2023-03-27T15:03:27.985Z,38.00
2023-03-27T15:08:29.422Z,37.80
2023-03-27T15:13:30.832Z,37.80
2023-03-27T15:18:32.289Z,37.90
2023-03-27T15:23:33.715Z,37.80
2023-03-27T15:28:35.141Z,37.90
2023-03-27T15:33:36.534Z,37.90
2023-03-27T15:38:37.934Z,37.80
2023-03-27T15:43:39.329Z,37.90
2023-03-27T15:48:40.759Z,37.80
2023-03-27T15:53:42.192Z,37.80
2023-03-27T15:58:43.606Z,37.80
2023-03-27T16:03:45.089Z,37.80
2023-03-27T16:08:46.589Z,37.80
2023-03-27T16:13:47.991Z,37.80
2023-03-27T16:18:49.387Z,37.80
2023-03-27T16:23:50.798Z,37.70
2023-03-27T16:28:52.300Z,37.80
2023-03-27T16:33:53.700Z,37.70
2023-03-27T16:38:55.112Z,37.70
2023-03-27T16:43:56.525Z,37.70
2023-03-27T16:48:57.962Z,37.80
2023-03-27T16:53:59.373Z,37.70
2023-03-27T16:59:00.869Z,37.10
2023-03-27T17:04:02.273Z,37.00
2023-03-27T17:09:03.721Z,36.90
2023-03-27T17:14:05.150Z,36.90
2023-03-27T17:19:06.577Z,36.90
2023-03-27T17:24:07.987Z,36.90
2023-03-27T17:29:09.446Z,37.00
2023-03-27T17:34:11.085Z,37.00
2023-03-27T17:39:12.524Z,37.10
2023-03-27T17:44:13.990Z,37.10
2023-03-27T17:49:15.511Z,37.10
2023-03-27T17:54:16.961Z,37.20
2023-03-27T17:59:18.530Z,37.20
2023-03-27T18:04:19.966Z,37.20
2023-03-27T18:09:21.377Z,37.20
2023-03-27T18:14:22.786Z,37.30
2023-03-27T18:19:24.185Z,37.30
2023-03-27T18:24:25.600Z,37.40
2023-03-27T18:29:27.969Z,37.30
2023-03-27T18:34:29.377Z,37.30
2023-03-27T18:39:30.822Z,37.40
2023-03-27T18:44:32.355Z,37.30
2023-03-27T18:49:33.850Z,37.40
2023-03-27T18:54:35.261Z,37.40
2023-03-27T18:59:36.719Z,37.30
2023-03-27T19:04:38.146Z,37.30
2023-03-27T19:09:41.718Z,37.40
2023-03-27T19:14:43.323Z,37.40
2023-03-27T19:19:46.365Z,37.40
2023-03-27T19:24:48.053Z,37.80
2023-03-27T19:29:49.454Z,38.10
2023-03-27T19:34:50.876Z,38.10
2023-03-27T19:39:52.292Z,37.70
2023-03-27T19:44:53.741Z,37.40
2023-03-27T19:49:55.141Z,36.80
2023-03-27T19:54:56.549Z,36.40
2023-03-27T19:59:58.006Z,36.10
2023-03-27T20:04:59.494Z,35.50
2023-03-27T20:10:00.956Z,34.90
2023-03-27T20:20:08.778Z,34.20
2023-03-27T20:25:10.206Z,33.80
2023-03-27T20:30:11.635Z,33.80
2023-03-27T20:35:22.912Z,33.50
2023-03-27T20:40:25.471Z,33.20
2023-03-27T20:45:26.914Z,33.00
2023-03-27T20:50:28.341Z,33.10
2023-03-27T20:55:34.840Z,33.00
2023-03-27T21:00:38.923Z,32.90
2023-03-27T21:05:40.348Z,32.90
2023-03-27T21:10:41.752Z,32.80
2023-03-27T21:15:43.212Z,32.70
2023-03-27T21:20:44.619Z,32.70
2023-03-27T21:25:46.024Z,32.60
2023-03-27T21:30:48.450Z,32.60
2023-03-27T21:35:50.434Z,32.50
2023-03-27T21:40:51.924Z,32.40
2023-03-27T21:45:53.386Z,32.50
2023-03-27T21:50:55.054Z,32.60
2023-03-27T21:55:56.598Z,32.50
2023-03-27T22:00:58.246Z,32.50
2023-03-27T22:06:10.724Z,32.30
2023-03-27T22:11:12.891Z,32.20
2023-03-27T22:16:14.573Z,32.30
2023-03-27T22:21:16.054Z,32.30
2023-03-27T22:26:17.508Z,32.20
2023-03-27T22:31:18.928Z,32.00
2023-03-27T22:36:21.608Z,32.20
2023-03-27T22:41:22.999Z,32.20
2023-03-27T22:46:24.439Z,32.10
2023-03-27T22:51:25.873Z,32.20
2023-03-27T22:56:27.297Z,32.10
2023-03-27T23:01:28.825Z,32.20
2023-03-27T23:06:30.256Z,31.90
2023-03-27T23:11:31.670Z,31.80
2023-03-27T23:16:33.214Z,31.70
2023-03-27T23:21:34.698Z,31.60
2023-03-27T23:26:36.154Z,31.60
2023-03-27T23:31:37.595Z,31.50
2023-03-27T23:36:39.016Z,31.50
2023-03-27T23:41:40.450Z,31.10
2023-03-27T23:46:41.878Z,29.90
2023-03-27T23:51:43.281Z,30.20
2023-03-27T23:56:44.728Z,30.40
